createdAt,value
2019-04-05T00:00:42.548Z,0.00
2019-04-05T00:01:42.569Z,0.00
2019-04-05T00:02:42.529Z,0.00
2019-04-05T00:03:42.514Z,0.00
2019-04-05T00:04:42.504Z,0.00
2019-04-05T00:05:42.508Z,0.00
2019-04-05T00:06:42.519Z,0.00
2019-04-05T00:07:42.467Z,0.00
2019-04-05T00:08:42.454Z,0.00
2019-04-05T00:09:42.453Z,0.00
2019-04-05T00:10:42.452Z,0.00
2019-04-05T00:11:42.458Z,0.00
2019-04-05T00:12:42.427Z,0.00
2019-04-05T00:13:42.416Z,0.00
2019-04-05T00:14:42.395Z,0.00
2019-04-05T00:15:42.388Z,0.00
2019-04-05T00:16:42.419Z,0.00
2019-04-05T00:17:42.369Z,0.00
2019-04-05T00:18:42.357Z,0.00
2019-04-05T00:19:42.344Z,0.00
2019-04-05T00:20:42.353Z,0.00
2019-04-05T00:21:42.364Z,0.00
2019-04-05T00:22:42.320Z,0.00
2019-04-05T00:23:42.310Z,0.00
2019-04-05T00:24:42.300Z,0.00
2019-04-05T00:25:42.291Z,0.00
2019-04-05T00:26:42.337Z,0.00
2019-04-05T00:27:42.262Z,0.00
2019-04-05T00:28:42.283Z,0.00
2019-04-05T00:29:42.243Z,0.00
2019-04-05T00:30:42.233Z,0.00
2019-04-05T00:31:42.262Z,0.00
2019-04-05T00:32:42.210Z,0.00
2019-04-05T00:33:42.203Z,0.00
2019-04-05T00:34:42.198Z,0.00
2019-04-05T00:35:42.187Z,0.00
2019-04-05T00:36:42.201Z,0.00
2019-04-05T00:37:42.167Z,0.00
2019-04-05T00:38:42.148Z,0.00
2019-04-05T00:39:42.140Z,0.00
2019-04-05T00:40:42.137Z,0.00
2019-04-05T00:41:42.145Z,0.00
2019-04-05T00:42:42.099Z,0.00
2019-04-05T00:43:42.094Z,0.00
2019-04-05T00:44:42.085Z,0.00
2019-04-05T00:45:42.074Z,0.00
2019-04-05T00:46:44.643Z,0.00
2019-04-05T00:47:42.050Z,0.00
2019-04-05T00:48:42.039Z,0.00
2019-04-05T00:49:42.026Z,0.00
2019-04-05T00:50:42.021Z,0.00
2019-04-05T00:51:42.031Z,0.00
2019-04-05T00:52:42.000Z,0.00
2019-04-05T00:53:41.999Z,0.00
2019-04-05T00:54:41.980Z,0.00
2019-04-05T00:55:41.967Z,0.00
2019-04-05T00:56:41.998Z,0.00
2019-04-05T00:57:41.952Z,0.00
2019-04-05T00:58:41.932Z,0.00
2019-04-05T00:59:41.914Z,0.00
2019-04-05T01:00:41.907Z,0.00
2019-04-05T01:01:41.924Z,0.00
2019-04-05T01:02:41.891Z,0.00
2019-04-05T01:03:41.884Z,0.00
2019-04-05T01:04:41.862Z,0.00
2019-04-05T01:05:41.857Z,0.00
2019-04-05T01:06:41.880Z,0.00
2019-04-05T01:07:41.831Z,0.00
2019-04-05T01:08:41.831Z,0.00
2019-04-05T01:09:41.824Z,0.00
2019-04-05T01:10:41.799Z,0.00
2019-04-05T01:11:41.824Z,0.00
2019-04-05T01:12:41.780Z,0.00
2019-04-05T01:13:41.767Z,0.00
2019-04-05T01:14:41.779Z,0.00
2019-04-05T01:15:41.764Z,0.00
2019-04-05T01:16:41.775Z,0.00
2019-04-05T01:17:41.732Z,0.00
2019-04-05T01:18:41.712Z,0.00
2019-04-05T01:19:41.706Z,0.00
2019-04-05T01:20:41.705Z,0.00
2019-04-05T01:21:41.717Z,0.00
2019-04-05T01:22:41.681Z,0.00
2019-04-05T01:23:41.656Z,0.00
2019-04-05T01:24:41.648Z,0.00
2019-04-05T01:25:41.649Z,0.00
2019-04-05T01:26:41.662Z,0.00
2019-04-05T01:27:41.633Z,0.00
2019-04-05T01:28:41.609Z,0.00
2019-04-05T01:29:41.591Z,0.00
2019-04-05T01:30:41.591Z,0.00
2019-04-05T01:31:41.609Z,0.00
2019-04-05T01:32:41.565Z,0.00
2019-04-05T01:33:41.559Z,0.00
2019-04-05T01:34:41.544Z,0.00
2019-04-05T01:35:41.541Z,0.00
2019-04-05T01:36:41.554Z,0.00
2019-04-05T01:37:41.514Z,0.00
2019-04-05T01:38:41.503Z,0.00
2019-04-05T01:39:41.541Z,0.00
2019-04-05T01:40:41.486Z,0.00
2019-04-05T01:41:41.501Z,0.00
2019-04-05T01:42:41.474Z,0.00
2019-04-05T01:43:41.468Z,0.00
2019-04-05T01:44:41.462Z,0.00
2019-04-05T01:45:53.128Z,0.00
2019-04-05T01:46:42.459Z,0.00
2019-04-05T01:47:41.402Z,0.00
2019-04-05T01:48:41.400Z,0.00
2019-04-05T01:49:41.394Z,0.00
2019-04-05T01:50:41.373Z,0.00
2019-04-05T01:51:41.361Z,0.00
2019-04-05T01:52:41.385Z,0.00
2019-04-05T01:53:41.345Z,0.00
2019-04-05T01:54:41.333Z,0.00
2019-04-05T01:55:41.330Z,0.00
2019-04-05T01:56:41.311Z,0.00
2019-04-05T01:57:41.392Z,0.00
2019-04-05T01:58:41.294Z,0.00
2019-04-05T01:59:41.284Z,0.00
2019-04-05T02:00:41.293Z,0.00
2019-04-05T02:01:41.264Z,0.00
2019-04-05T02:02:41.290Z,0.00
2019-04-05T02:03:41.231Z,0.00
2019-04-05T02:04:41.227Z,0.00
2019-04-05T02:05:41.217Z,0.00
2019-04-05T02:06:41.217Z,0.00
2019-04-05T02:07:41.228Z,0.00
2019-04-05T02:08:41.184Z,0.00
2019-04-05T02:09:41.170Z,0.00
2019-04-05T02:10:41.164Z,0.00
2019-04-05T02:11:41.161Z,0.00
2019-04-05T02:12:41.166Z,0.00
2019-04-05T02:13:41.145Z,0.00
2019-04-05T02:14:41.122Z,0.00
2019-04-05T02:15:41.171Z,0.00
2019-04-05T02:16:41.092Z,0.00
2019-04-05T02:17:41.108Z,0.00
2019-04-05T02:18:41.112Z,0.00
2019-04-05T02:19:41.062Z,0.00
2019-04-05T02:20:41.067Z,0.00
2019-04-05T02:21:41.049Z,0.00
2019-04-05T02:22:41.066Z,0.00
2019-04-05T02:23:41.031Z,0.00
2019-04-05T02:24:41.024Z,0.00
2019-04-05T02:25:40.995Z,0.00
2019-04-05T02:26:40.995Z,0.00
2019-04-05T02:27:41.008Z,0.00
2019-04-05T02:28:40.965Z,0.00
2019-04-05T02:29:40.955Z,0.00
2019-04-05T02:30:40.966Z,0.00
2019-04-05T02:31:40.944Z,0.00
2019-04-05T02:32:40.966Z,0.00
2019-04-05T02:33:40.919Z,0.00
2019-04-05T02:34:40.930Z,0.00
2019-04-05T02:35:40.900Z,0.00
2019-04-05T02:36:40.910Z,0.00
2019-04-05T02:37:40.906Z,0.00
2019-04-05T02:38:40.861Z,0.00
2019-04-05T02:39:40.851Z,0.00
2019-04-05T02:40:40.863Z,0.00
2019-04-05T02:41:40.858Z,0.00
2019-04-05T02:42:40.851Z,0.00
2019-04-05T02:43:40.814Z,0.00
2019-04-05T02:44:40.827Z,0.00
2019-04-05T02:45:40.803Z,0.00
2019-04-05T02:46:40.790Z,0.00
2019-04-05T02:47:40.797Z,0.00
2019-04-05T02:48:40.762Z,0.00
2019-04-05T02:49:40.732Z,0.00
2019-04-05T02:50:40.744Z,0.00
2019-04-05T02:51:40.730Z,0.00
2019-04-05T02:52:40.743Z,0.00
2019-04-05T02:53:40.713Z,0.00
2019-04-05T02:54:40.691Z,0.00
2019-04-05T02:55:40.680Z,0.00
2019-04-05T02:56:40.668Z,0.00
2019-04-05T02:57:40.693Z,0.00
2019-04-05T02:58:40.659Z,0.00
2019-04-05T02:59:40.637Z,0.00
2019-04-05T03:00:40.625Z,0.00
2019-04-05T03:01:40.614Z,0.00
2019-04-05T03:02:40.657Z,0.00
2019-04-05T03:03:40.597Z,0.00
2019-04-05T03:04:40.592Z,0.00
2019-04-05T03:05:40.632Z,0.00
2019-04-05T03:06:40.567Z,0.00
2019-04-05T03:07:40.584Z,0.00
2019-04-05T03:08:40.540Z,0.00
2019-04-05T03:09:40.539Z,0.00
2019-04-05T03:10:40.530Z,0.00
2019-04-05T03:11:40.510Z,0.00
2019-04-05T03:12:40.544Z,0.00
2019-04-05T03:13:40.498Z,0.00
2019-04-05T03:14:40.477Z,0.00
2019-04-05T03:15:40.479Z,0.00
2019-04-05T03:16:41.911Z,0.00
2019-04-05T03:17:40.482Z,0.00
2019-04-05T03:18:40.430Z,0.00
2019-04-05T03:19:40.420Z,0.00
2019-04-05T03:20:40.442Z,0.00
2019-04-05T03:21:40.432Z,0.00
2019-04-05T03:22:40.443Z,0.00
2019-04-05T03:23:40.384Z,0.00
2019-04-05T03:24:40.383Z,0.00
2019-04-05T03:25:40.356Z,0.00
2019-04-05T03:26:40.348Z,0.00
2019-04-05T03:27:40.343Z,0.00
2019-04-05T03:28:40.359Z,0.00
2019-04-05T03:29:40.315Z,0.00
2019-04-05T03:30:40.311Z,0.00
2019-04-05T03:31:40.293Z,0.00
2019-04-05T03:32:40.299Z,0.00
2019-04-05T03:33:40.306Z,0.00
2019-04-05T03:34:40.264Z,0.00
2019-04-05T03:35:40.259Z,0.00
2019-04-05T03:36:40.242Z,0.00
2019-04-05T03:37:40.225Z,0.00
2019-04-05T03:38:40.249Z,0.00
2019-04-05T03:39:40.214Z,0.00
2019-04-05T03:40:40.202Z,0.00
2019-04-05T03:41:40.196Z,0.00
2019-04-05T03:42:40.175Z,0.00
2019-04-05T03:43:40.282Z,0.00
2019-04-05T03:44:40.162Z,0.00
2019-04-05T03:45:40.151Z,0.00
2019-04-05T03:46:55.435Z,0.00
2019-04-05T03:47:41.127Z,0.00
2019-04-05T03:48:40.143Z,0.00
2019-04-05T03:49:40.107Z,0.00
2019-04-05T03:50:40.118Z,0.00
2019-04-05T03:51:40.097Z,0.00
2019-04-05T03:52:40.094Z,0.00
2019-04-05T03:53:40.088Z,0.00
2019-04-05T03:54:40.047Z,0.00
2019-04-05T03:55:40.041Z,0.00
2019-04-05T03:56:40.960Z,0.00
2019-04-05T03:57:40.016Z,0.00
2019-04-05T03:58:40.051Z,0.00
2019-04-05T03:59:39.995Z,0.00
2019-04-05T04:00:39.981Z,0.00
2019-04-05T04:01:39.983Z,0.00
2019-04-05T04:02:39.972Z,0.00
2019-04-05T04:03:40.064Z,0.00
2019-04-05T04:04:39.944Z,0.00
2019-04-05T04:05:39.938Z,0.00
2019-04-05T04:06:39.920Z,0.00
2019-04-05T04:07:39.919Z,0.00
2019-04-05T04:08:39.925Z,0.00
2019-04-05T04:09:39.899Z,0.00
2019-04-05T04:10:39.882Z,0.00
2019-04-05T04:11:39.872Z,0.00
2019-04-05T04:12:39.889Z,0.00
2019-04-05T04:13:39.886Z,0.00
2019-04-05T04:14:39.845Z,0.00
2019-04-05T04:15:39.825Z,0.00
2019-04-05T04:16:39.809Z,0.00
2019-04-05T04:17:39.804Z,0.00
2019-04-05T04:18:39.825Z,0.00
2019-04-05T04:19:39.785Z,0.00
2019-04-05T04:20:39.773Z,0.00
2019-04-05T04:21:39.765Z,0.00
2019-04-05T04:22:39.751Z,0.00
2019-04-05T04:23:39.766Z,0.00
2019-04-05T04:24:39.729Z,0.00
2019-04-05T04:25:39.725Z,0.00
2019-04-05T04:26:39.706Z,0.00
2019-04-05T04:27:39.698Z,0.00
2019-04-05T04:28:39.713Z,0.00
2019-04-05T04:29:39.701Z,4.00
2019-04-05T04:30:39.666Z,0.00
2019-04-05T04:31:39.662Z,4.00
2019-04-05T04:32:39.642Z,4.00
2019-04-05T04:33:39.657Z,4.00
2019-04-05T04:34:39.616Z,4.00
2019-04-05T04:35:39.610Z,4.00
2019-04-05T04:36:39.608Z,4.00
2019-04-05T04:37:39.595Z,8.00
2019-04-05T04:38:39.610Z,8.00
2019-04-05T04:39:39.573Z,12.00
2019-04-05T04:40:39.567Z,12.00
2019-04-05T04:41:39.572Z,12.00
2019-04-05T04:42:39.540Z,16.00
2019-04-05T04:43:39.555Z,16.00
2019-04-05T04:44:39.524Z,20.00
2019-04-05T04:45:39.504Z,24.00
2019-04-05T04:46:39.493Z,32.00
2019-04-05T04:47:39.494Z,36.00
2019-04-05T04:48:39.501Z,44.00
2019-04-05T04:49:39.459Z,48.00
2019-04-05T04:50:39.448Z,44.00
2019-04-05T04:51:39.452Z,48.00
2019-04-05T04:52:39.428Z,48.00
2019-04-05T04:53:39.453Z,52.00
2019-04-05T04:54:39.410Z,64.00
2019-04-05T04:55:39.406Z,60.00
2019-04-05T04:56:39.389Z,60.00
2019-04-05T04:57:39.371Z,56.00
2019-04-05T04:58:39.395Z,60.00
2019-04-05T04:59:39.361Z,60.00
2019-04-05T05:00:39.348Z,68.00
2019-04-05T05:01:39.359Z,72.00
2019-04-05T05:02:39.326Z,76.00
2019-04-05T05:03:39.336Z,92.00
2019-04-05T05:04:39.299Z,92.00
2019-04-05T05:05:39.298Z,92.00
2019-04-05T05:06:39.273Z,96.00
2019-04-05T05:07:39.264Z,92.00
2019-04-05T05:08:39.291Z,96.00
2019-04-05T05:09:39.243Z,112.00
2019-04-05T05:10:39.244Z,124.00
2019-04-05T05:11:39.231Z,164.00
2019-04-05T05:12:39.214Z,196.00
2019-04-05T05:13:39.306Z,228.00
2019-04-05T05:14:39.195Z,224.00
2019-04-05T05:15:39.182Z,212.00
2019-04-05T05:16:39.179Z,208.00
2019-04-05T05:17:39.269Z,216.00
2019-04-05T05:18:39.190Z,220.00
2019-04-05T05:19:39.142Z,208.00
2019-04-05T05:20:39.129Z,200.00
2019-04-05T05:21:39.115Z,196.00
2019-04-05T05:22:39.109Z,200.00
2019-04-05T05:23:39.101Z,216.00
2019-04-05T05:24:39.122Z,248.00
2019-04-05T05:25:39.074Z,244.00
2019-04-05T05:26:39.067Z,228.00
2019-04-05T05:28:29.143Z,248.00
2019-04-05T05:29:29.149Z,256.00
2019-04-05T05:30:29.115Z,264.00
2019-04-05T05:31:29.101Z,264.00
2019-04-05T05:32:29.101Z,288.00
2019-04-05T05:33:29.092Z,328.00
2019-04-05T05:34:29.107Z,364.00
2019-04-05T05:35:29.059Z,412.00
2019-04-05T05:36:29.059Z,444.00
2019-04-05T05:37:29.041Z,524.00
2019-04-05T05:38:29.029Z,620.00
2019-04-05T05:39:29.048Z,768.00
2019-04-05T05:40:35.058Z,896.00
2019-04-05T05:41:30.007Z,932.00
2019-04-05T05:42:28.988Z,936.00
2019-04-05T05:43:28.973Z,1012.00
2019-04-05T05:44:29.010Z,1092.00
2019-04-05T05:45:28.952Z,1080.00
2019-04-05T05:46:28.939Z,964.00
2019-04-05T05:47:28.930Z,828.00
2019-04-05T05:48:30.821Z,812.00
2019-04-05T05:49:28.940Z,820.00
2019-04-05T05:50:28.904Z,1000.00
2019-04-05T05:51:28.896Z,1200.00
2019-04-05T05:52:28.878Z,1600.00
2019-04-05T05:53:28.869Z,1672.00
2019-04-05T05:54:28.886Z,1612.00
2019-04-05T05:55:30.233Z,1584.00
2019-04-05T05:56:28.836Z,1516.00
2019-04-05T05:57:28.823Z,1640.00
2019-04-05T05:58:28.812Z,1788.00
2019-04-05T05:59:30.192Z,1932.00
2019-04-05T06:00:31.058Z,1808.00
2019-04-05T06:01:28.781Z,1904.00
2019-04-05T06:02:28.773Z,1768.00
2019-04-05T06:03:28.760Z,1820.00
2019-04-05T06:04:28.771Z,1752.00
2019-04-05T06:05:28.744Z,1736.00
2019-04-05T06:06:28.731Z,1632.00
2019-04-05T06:07:28.721Z,1644.00
2019-04-05T06:08:29.309Z,1648.00
2019-04-05T06:09:28.735Z,1688.00
2019-04-05T06:10:28.696Z,2084.00
2019-04-05T06:11:28.682Z,2332.00
2019-04-05T06:12:28.668Z,2384.00
2019-04-05T06:13:28.661Z,2224.00
2019-04-05T06:14:28.678Z,2088.00
2019-04-05T06:15:28.628Z,2376.00
2019-04-05T06:16:28.622Z,2796.00
2019-04-05T06:17:28.614Z,3200.00
2019-04-05T06:18:28.600Z,3236.00
2019-04-05T06:19:28.614Z,3088.00
2019-04-05T06:20:28.581Z,3016.00
2019-04-05T06:21:28.568Z,3064.00
2019-04-05T06:22:28.564Z,2860.00
2019-04-05T06:23:33.846Z,2820.00
2019-04-05T06:24:29.559Z,3524.00
2019-04-05T06:25:28.547Z,3208.00
2019-04-05T06:26:28.512Z,2640.00
2019-04-05T06:27:28.507Z,2692.00
2019-04-05T06:28:28.528Z,2820.00
2019-04-05T06:29:28.510Z,3228.00
2019-04-05T06:30:28.963Z,3364.00
2019-04-05T06:31:28.464Z,3744.00
2019-04-05T06:32:28.449Z,4560.00
2019-04-05T06:33:31.705Z,4388.00
2019-04-05T06:34:28.448Z,4400.00
2019-04-05T06:35:28.410Z,4224.00
2019-04-05T06:36:28.409Z,4392.00
2019-04-05T06:37:28.394Z,5340.00
2019-04-05T06:38:28.382Z,6052.00
2019-04-05T06:39:28.412Z,6336.00
2019-04-05T06:40:40.050Z,6272.00
2019-04-05T06:41:29.355Z,6220.00
2019-04-05T06:42:28.340Z,6424.00
2019-04-05T06:43:28.327Z,6576.00
2019-04-05T06:44:28.316Z,7016.00
2019-04-05T06:45:28.341Z,7356.00
2019-04-05T06:46:28.297Z,7132.00
2019-04-05T06:47:28.286Z,7044.00
2019-04-05T06:48:29.441Z,6612.00
2019-04-05T06:49:28.263Z,6360.00
2019-04-05T06:50:28.275Z,6444.00
2019-04-05T06:51:28.248Z,6392.00
2019-04-05T06:52:28.232Z,6412.00
2019-04-05T06:53:28.215Z,6668.00
2019-04-05T06:54:28.221Z,6660.00
2019-04-05T06:55:28.229Z,6588.00
2019-04-05T06:56:28.191Z,6472.00
2019-04-05T06:57:28.178Z,6412.00
2019-04-05T06:58:29.536Z,6752.00
2019-04-05T06:59:28.152Z,7236.00
2019-04-05T07:00:28.170Z,7604.00
2019-04-05T07:01:28.132Z,7688.00
2019-04-05T07:02:28.122Z,7556.00
2019-04-05T07:03:28.126Z,7372.00
2019-04-05T07:04:30.890Z,7464.00
2019-04-05T07:05:28.117Z,7656.00
2019-04-05T07:06:28.076Z,7916.00
2019-04-05T07:07:28.067Z,8256.00
2019-04-05T07:08:28.058Z,8576.00
2019-04-05T07:09:28.042Z,8780.00
2019-04-05T07:10:28.059Z,8640.00
2019-04-05T07:11:28.027Z,8328.00
2019-04-05T07:12:28.013Z,8124.00
2019-04-05T07:13:28.001Z,7416.00
2019-04-05T07:14:27.999Z,6672.00
2019-04-05T07:15:28.011Z,6136.00
2019-04-05T07:16:27.976Z,5904.00
2019-04-05T07:17:27.957Z,6576.00
2019-04-05T07:18:35.446Z,7144.00
2019-04-05T07:19:28.936Z,7400.00
2019-04-05T07:20:27.954Z,7768.00
2019-04-05T07:21:27.919Z,8180.00
2019-04-05T07:22:38.451Z,8544.00
2019-04-05T07:23:28.890Z,8816.00
2019-04-05T07:24:27.880Z,9488.00
2019-04-05T07:25:29.316Z,9596.00
2019-04-05T07:26:27.860Z,9940.00
2019-04-05T07:27:27.848Z,10156.00
2019-04-05T07:28:27.841Z,9828.00
2019-04-05T07:29:27.824Z,9384.00
2019-04-05T07:30:28.942Z,9240.00
2019-04-05T07:31:27.825Z,9384.00
2019-04-05T07:32:27.801Z,9476.00
2019-04-05T07:33:27.788Z,9540.00
2019-04-05T07:34:27.781Z,9340.00
2019-04-05T07:35:33.567Z,9456.00
2019-04-05T07:36:28.749Z,9812.00
2019-04-05T07:37:27.741Z,10384.00
2019-04-05T07:38:27.729Z,10648.00
2019-04-05T07:39:27.720Z,10252.00
2019-04-05T07:40:27.739Z,8564.00
2019-04-05T07:41:27.695Z,7348.00
2019-04-05T07:42:27.709Z,8076.00
2019-04-05T07:43:27.677Z,9628.00
2019-04-05T07:44:27.712Z,10416.00
2019-04-05T07:45:27.677Z,9608.00
2019-04-05T07:46:27.643Z,10648.00
2019-04-05T07:47:27.635Z,10436.00
2019-04-05T07:48:27.623Z,9384.00
2019-04-05T07:49:27.615Z,8680.00
2019-04-05T07:50:27.624Z,9208.00
2019-04-05T07:51:27.591Z,9652.00
2019-04-05T07:52:27.580Z,10432.00
2019-04-05T07:53:27.574Z,11212.00
2019-04-05T07:54:27.560Z,11904.00
2019-04-05T07:55:27.619Z,11004.00
2019-04-05T07:56:27.536Z,10672.00
2019-04-05T07:57:27.531Z,10404.00
2019-04-05T07:58:27.519Z,10716.00
2019-04-05T07:59:27.504Z,11240.00
2019-04-05T08:00:27.524Z,11056.00
2019-04-05T08:01:27.488Z,10412.00
2019-04-05T08:02:27.470Z,9504.00
2019-04-05T08:03:27.462Z,9444.00
2019-04-05T08:04:27.451Z,10068.00
2019-04-05T08:05:27.479Z,10652.00
2019-04-05T08:06:27.429Z,11536.00
2019-04-05T08:07:27.484Z,12592.00
2019-04-05T08:08:27.408Z,12400.00
2019-04-05T08:09:27.396Z,12208.00
2019-04-05T08:10:27.395Z,11300.00
2019-04-05T08:11:27.403Z,11176.00
2019-04-05T08:12:27.363Z,10944.00
2019-04-05T08:13:27.357Z,11116.00
2019-04-05T08:14:27.353Z,11692.00
2019-04-05T08:15:27.332Z,11500.00
2019-04-05T08:16:27.351Z,11476.00
2019-04-05T08:17:27.319Z,12536.00
2019-04-05T08:18:27.306Z,13344.00
2019-04-05T08:19:27.291Z,14184.00
2019-04-05T08:20:27.299Z,14036.00
2019-04-05T08:21:27.297Z,13528.00
2019-04-05T08:22:27.279Z,13408.00
2019-04-05T08:23:27.243Z,12696.00
2019-04-05T08:24:27.235Z,13652.00
2019-04-05T08:25:27.228Z,13468.00
2019-04-05T08:26:27.262Z,14168.00
2019-04-05T08:27:27.205Z,14080.00
2019-04-05T08:28:29.554Z,14052.00
2019-04-05T08:29:27.182Z,15364.00
2019-04-05T08:30:27.171Z,15200.00
2019-04-05T08:31:27.193Z,13280.00
2019-04-05T08:32:27.151Z,12600.00
2019-04-05T08:33:27.143Z,13540.00
2019-04-05T08:34:27.135Z,13084.00
2019-04-05T08:35:27.118Z,12672.00
2019-04-05T08:36:27.139Z,13148.00
2019-04-05T08:37:27.091Z,13608.00
2019-04-05T08:38:27.091Z,14956.00
2019-04-05T08:39:27.072Z,15548.00
2019-04-05T08:40:27.070Z,16088.00
2019-04-05T08:41:27.079Z,16628.00
2019-04-05T08:42:27.041Z,18112.00
2019-04-05T08:43:27.032Z,19840.00
2019-04-05T08:44:27.021Z,21088.00
2019-04-05T08:45:27.008Z,22624.00
2019-04-05T08:46:27.027Z,22176.00
2019-04-05T08:47:26.991Z,20256.00
2019-04-05T08:48:26.981Z,18560.00
2019-04-05T08:49:26.968Z,18816.00
2019-04-05T08:50:26.954Z,19200.00
2019-04-05T08:51:26.972Z,20192.00
2019-04-05T08:52:27.199Z,20960.00
2019-04-05T08:53:26.925Z,21088.00
2019-04-05T08:54:32.707Z,22240.00
2019-04-05T08:55:27.904Z,22048.00
2019-04-05T08:56:26.920Z,20704.00
2019-04-05T08:57:26.889Z,20384.00
2019-04-05T08:58:33.180Z,18304.00
2019-04-05T08:59:27.864Z,19360.00
2019-04-05T09:00:26.847Z,21760.00
2019-04-05T09:01:26.868Z,20448.00
2019-04-05T09:02:26.827Z,17316.00
2019-04-05T09:03:26.818Z,16660.00
2019-04-05T09:04:26.809Z,18688.00
2019-04-05T09:05:26.792Z,17984.00
2019-04-05T09:06:26.810Z,16576.00
2019-04-05T09:07:26.771Z,16448.00
2019-04-05T09:08:26.759Z,15076.00
2019-04-05T09:09:26.751Z,14340.00
2019-04-05T09:10:26.740Z,13100.00
2019-04-05T09:11:26.751Z,14000.00
2019-04-05T09:12:26.720Z,15636.00
2019-04-05T09:13:26.713Z,17372.00
2019-04-05T09:14:26.702Z,18752.00
2019-04-05T09:15:26.684Z,18912.00
2019-04-05T09:16:26.717Z,17616.00
2019-04-05T09:17:26.661Z,16564.00
2019-04-05T09:18:26.652Z,16360.00
2019-04-05T09:19:26.643Z,16196.00
2019-04-05T09:20:26.642Z,15564.00
2019-04-05T09:21:26.622Z,15096.00
2019-04-05T09:22:26.649Z,15132.00
2019-04-05T09:23:26.599Z,15304.00
2019-04-05T09:24:26.589Z,14984.00
2019-04-05T09:25:26.576Z,13584.00
2019-04-05T09:26:26.568Z,12776.00
2019-04-05T09:27:26.583Z,12868.00
2019-04-05T09:28:26.542Z,13564.00
2019-04-05T09:29:26.531Z,13680.00
2019-04-05T09:30:26.522Z,13248.00
2019-04-05T09:31:26.512Z,12852.00
2019-04-05T09:32:26.529Z,12604.00
2019-04-05T09:33:26.490Z,12192.00
2019-04-05T09:34:26.483Z,11624.00
2019-04-05T09:35:26.473Z,10952.00
2019-04-05T09:36:26.465Z,10620.00
2019-04-05T09:37:26.477Z,10356.00
2019-04-05T09:38:26.482Z,9976.00
2019-04-05T09:39:26.427Z,9876.00
2019-04-05T09:40:26.415Z,10048.00
2019-04-05T09:41:26.419Z,10900.00
2019-04-05T09:42:26.432Z,11204.00
2019-04-05T09:43:26.382Z,11596.00
2019-04-05T09:44:26.378Z,11976.00
2019-04-05T09:45:26.367Z,12036.00
2019-04-05T09:46:26.352Z,11708.00
2019-04-05T09:47:26.363Z,10948.00
2019-04-05T09:48:26.329Z,10780.00
2019-04-05T09:49:36.064Z,11276.00
2019-04-05T09:50:27.304Z,10852.00
2019-04-05T09:51:26.298Z,10932.00
2019-04-05T09:52:26.317Z,11680.00
2019-04-05T09:53:26.287Z,11628.00
2019-04-05T09:54:26.267Z,11448.00
2019-04-05T09:55:26.255Z,10756.00
2019-04-05T09:56:26.241Z,10648.00
2019-04-05T09:57:26.254Z,10912.00
2019-04-05T09:58:26.228Z,11596.00
2019-04-05T09:59:26.211Z,12284.00
2019-04-05T10:00:26.199Z,12716.00
2019-04-05T10:01:26.190Z,12732.00
2019-04-05T10:02:26.207Z,12804.00
2019-04-05T10:03:26.166Z,13280.00
2019-04-05T10:04:26.163Z,13940.00
2019-04-05T10:05:26.146Z,13516.00
2019-04-05T10:06:26.138Z,13656.00
2019-04-05T10:07:26.153Z,14424.00
2019-04-05T10:08:26.123Z,15396.00
2019-04-05T10:09:26.105Z,15892.00
2019-04-05T10:10:26.091Z,15136.00
2019-04-05T10:11:26.081Z,14472.00
2019-04-05T10:12:26.106Z,13476.00
2019-04-05T10:13:26.070Z,12968.00
2019-04-05T10:14:26.055Z,12356.00
2019-04-05T10:15:26.039Z,11336.00
2019-04-05T10:16:26.028Z,11328.00
2019-04-05T10:17:26.048Z,12772.00
2019-04-05T10:18:26.002Z,14972.00
2019-04-05T10:19:25.997Z,17140.00
2019-04-05T10:20:25.984Z,19072.00
2019-04-05T10:21:25.974Z,19808.00
2019-04-05T10:22:25.990Z,19872.00
2019-04-05T10:23:25.952Z,19200.00
2019-04-05T10:24:25.944Z,17408.00
2019-04-05T10:25:25.932Z,16620.00
2019-04-05T10:26:25.919Z,16844.00
2019-04-05T10:27:25.932Z,17120.00
2019-04-05T10:28:25.899Z,16564.00
2019-04-05T10:29:25.904Z,15828.00
2019-04-05T10:30:25.876Z,15156.00
2019-04-05T10:31:25.868Z,14636.00
2019-04-05T10:32:25.884Z,14460.00
2019-04-05T10:33:25.848Z,14764.00
2019-04-05T10:34:25.836Z,14788.00
2019-04-05T10:35:25.821Z,14900.00
2019-04-05T10:36:25.813Z,15100.00
2019-04-05T10:37:25.827Z,15656.00
2019-04-05T10:38:25.788Z,16232.00
2019-04-05T10:39:25.780Z,16824.00
2019-04-05T10:40:25.771Z,17636.00
2019-04-05T10:41:25.757Z,18176.00
2019-04-05T10:42:25.771Z,17952.00
2019-04-05T10:43:25.760Z,17952.00
2019-04-05T10:44:25.726Z,16928.00
2019-04-05T10:45:25.729Z,15728.00
2019-04-05T10:46:25.706Z,14724.00
2019-04-05T10:47:25.723Z,14052.00
2019-04-05T10:48:25.683Z,13780.00
2019-04-05T10:49:25.674Z,13316.00
2019-04-05T10:50:25.660Z,13364.00
2019-04-05T10:51:25.655Z,13492.00
2019-04-05T10:52:25.675Z,13208.00
2019-04-05T10:53:25.627Z,12800.00
2019-04-05T10:54:25.620Z,13732.00
2019-04-05T10:55:25.605Z,15096.00
2019-04-05T10:56:25.594Z,17752.00
2019-04-05T10:57:25.658Z,19840.00
2019-04-05T10:58:25.576Z,19808.00
2019-04-05T10:59:25.562Z,19424.00
2019-04-05T11:00:25.565Z,18720.00
2019-04-05T11:01:25.553Z,18944.00
2019-04-05T11:02:25.557Z,17952.00
2019-04-05T11:03:25.551Z,15944.00
2019-04-05T11:04:25.582Z,15132.00
2019-04-05T11:05:25.502Z,14832.00
2019-04-05T11:06:25.496Z,13388.00
2019-04-05T11:07:25.504Z,12248.00
2019-04-05T11:08:25.464Z,11948.00
2019-04-05T11:09:25.452Z,12356.00
2019-04-05T11:10:25.500Z,13196.00
2019-04-05T11:11:25.430Z,13572.00
2019-04-05T11:12:25.449Z,13720.00
2019-04-05T11:13:25.411Z,13764.00
2019-04-05T11:14:25.399Z,13508.00
2019-04-05T11:15:25.388Z,12704.00
2019-04-05T11:16:25.390Z,12524.00
2019-04-05T11:17:25.398Z,12976.00
2019-04-05T11:18:25.362Z,12848.00
2019-04-05T11:19:25.363Z,12808.00
2019-04-05T11:20:25.333Z,13604.00
2019-04-05T11:21:25.322Z,13152.00
2019-04-05T11:22:25.360Z,12012.00
2019-04-05T11:23:25.301Z,11040.00
2019-04-05T11:24:25.304Z,10192.00
2019-04-05T11:25:25.281Z,9732.00
2019-04-05T11:26:25.263Z,9880.00
2019-04-05T11:27:25.260Z,10136.00
2019-04-05T11:28:34.719Z,10208.00
2019-04-05T11:29:25.236Z,10048.00
2019-04-05T11:30:26.999Z,9264.00
2019-04-05T11:31:25.211Z,8336.00
2019-04-05T11:32:25.198Z,7552.00
2019-04-05T11:33:25.230Z,6980.00
2019-04-05T11:34:25.261Z,6620.00
2019-04-05T11:35:25.177Z,6556.00
2019-04-05T11:36:25.168Z,6408.00
2019-04-05T11:37:25.147Z,6372.00
2019-04-05T11:38:25.176Z,6488.00
2019-04-05T11:39:25.128Z,6680.00
2019-04-05T11:40:25.113Z,6596.00
2019-04-05T11:41:25.102Z,6516.00
2019-04-05T11:42:25.094Z,6868.00
2019-04-05T11:43:26.898Z,7748.00
2019-04-05T11:44:25.075Z,8496.00
2019-04-05T11:45:25.065Z,8860.00
2019-04-05T11:46:25.050Z,9032.00
2019-04-05T11:47:25.052Z,9156.00
2019-04-05T11:48:25.059Z,9564.00
2019-04-05T11:49:25.016Z,10260.00
2019-04-05T11:50:34.444Z,10840.00
2019-04-05T11:51:26.007Z,10636.00
2019-04-05T11:52:24.981Z,9840.00
2019-04-05T11:53:25.003Z,9292.00
2019-04-05T11:54:24.967Z,9352.00
2019-04-05T11:55:24.954Z,9588.00
2019-04-05T11:56:24.947Z,9584.00
2019-04-05T11:57:24.935Z,9520.00
2019-04-05T11:58:24.973Z,9796.00
2019-04-05T11:59:24.912Z,10216.00
2019-04-05T12:00:24.902Z,10752.00
2019-04-05T12:01:24.890Z,11260.00
2019-04-05T12:02:24.877Z,11144.00
2019-04-05T12:03:24.902Z,11184.00
2019-04-05T12:04:24.864Z,11968.00
2019-04-05T12:05:26.934Z,12856.00
2019-04-05T12:06:24.842Z,13900.00
2019-04-05T12:07:26.476Z,13816.00
2019-04-05T12:08:24.849Z,13568.00
2019-04-05T12:09:24.806Z,13828.00
2019-04-05T12:10:24.800Z,13932.00
2019-04-05T12:11:24.779Z,13504.00
2019-04-05T12:12:25.686Z,12352.00
2019-04-05T12:13:24.782Z,11448.00
2019-04-05T12:14:30.508Z,11588.00
2019-04-05T12:15:25.739Z,12580.00
2019-04-05T12:16:24.744Z,13512.00
2019-04-05T12:17:24.715Z,13424.00
2019-04-05T12:18:24.741Z,12940.00
2019-04-05T12:19:24.702Z,12000.00
2019-04-05T12:20:24.682Z,10752.00
2019-04-05T12:21:24.680Z,10144.00
2019-04-05T12:22:24.670Z,11256.00
2019-04-05T12:23:24.686Z,11956.00
2019-04-05T12:24:24.638Z,11112.00
2019-04-05T12:25:24.626Z,10288.00
2019-04-05T12:26:24.614Z,9920.00
2019-04-05T12:27:24.608Z,10348.00